Terminal Aerodrome Forecast
Issued by NWS

Home | Current Version | Previous Version | Text Only | Print | Product List | Glossary On
Versions: 1 2 3 4 5 6 7 8 9 10 11 12 13 14 15 16 17 18 19 20
000
FTUS44 KLZK 190800 AAA
TAFBPK
TAF AMD
KBPK 190811Z 1908/2006 VRB03KT 6SM BR BKN060 OVC080
     FM191000 VRB02KT 3SM BR SCT005 BKN025
      TEMPO 1910/1914 1/2SM FG OVC005
     FM191500 29005KT 5SM BR BKN015 OVC080
     FM191700 29006KT P6SM BKN035
     FM192000 25004KT P6SM VCTS BKN040CB OVC150
     FM200200 30010KT 5SM TSRA BKN015CB OVC070=

USA.gov is the U.S. government's official web portal to all federal, state and local government web resources and services.